Station VCAF1 - 8723970 - Vaca Key, FL Image indicating link to RSS feed of recent meteorological observations for station VCAF1


Conditions at VCAF1 as of
(12:30 am EDT)
0430 GMT on 04/19/2024:
     

Click on the graph icon in the table below to see a time series plot of the last five days of that observation.

5-day plot - Wind Direction Wind Direction (WDIR): E ( 100 deg true )
5-day plot - Wind Speed Wind Speed (WSPD): 6.0 kts
5-day plot - Wind Gust Wind Gust (GST): 11.1 kts
5-day plot - Air Temperature Air Temperature (ATMP): 76.1 °F
5-day plot - Water Temperature Water Temperature (WTMP): 79.7 °F
5-day plot - Wind Speed at 10 Meters Wind Speed at 10 meters (WSPD10M): 7.8 kts
5-day plot - Wind Speed at 20 Meters Wind Speed at 20 meters (WSPD20M): 7.8 kts
5-day plot -  Wind Speed, Wind Gust and Atmospheric Pressure Combined plot of Wind Speed, Gust, and Air Pressure
NOS Water Level Observation Network Water Level
Previous observations
TIME
(EDT)
5-day plot - Wind Direction
WDIR
 
5-day plot - Wind Speed
WSPD
kts
5-day plot - Wind Gust
GST
kts
5-day plot - Wave Height
WVHT
ft
5-day plot - Dominant Wave Period
DPD
sec
5-day plot - Average Wave Period
APD
sec
5-day plot - Mean Wave Direction
MWD
 
5-day plot - Atmospheric Pressure
PRES
in
5-day plot - Pressure Tendency
PTDY
in
5-day plot - Air Temperature
ATMP
°F
5-day plot - Water Temperature
WTMP
°F
5-day plot - Dew Point
DEWP
°F
5-day plot - Salinity
SAL
psu
5-day plot - Visibility
VIS
nmi
5-day plot - Tide (above MLLW)
TIDE
ft
2024-04-19 12:24 am E 5.1 8.9------ 76.3 79.7----
2024-04-19 12:18 am E 7.0 12.0------ 76.3 79.7----
2024-04-19 12:12 am E 5.1 8.9------ 76.3 79.7----
2024-04-19 12:06 am E 6.0 9.9------ 76.3 79.7----
2024-04-19 12:00 am E 6.0 8.9------ 76.3 79.7----
2024-04-18 11:54 pm E 4.1 8.9------ 76.3 79.7----
2024-04-18 11:48 pm E 5.1 11.1------ 76.5 79.7----
2024-04-18 11:42 pm E 5.1 8.9------ 76.5 79.7----
2024-04-18 11:36 pm E 4.1 11.1------ 76.5 79.9----
2024-04-18 11:30 pm E 5.1 8.9------ 76.5 79.9----
2024-04-18 11:24 pmESE 5.1 9.9------ 76.3 79.9----
2024-04-18 11:18 pm E 5.1 8.9------ 76.5 79.9----
2024-04-18 11:12 pm E 7.0 11.1------ 76.5 79.9----
2024-04-18 11:06 pm E 5.1 9.9------ 76.5 79.9----
2024-04-18 11:00 pm E 5.1 8.9------ 76.5 79.9----
2024-04-18 10:54 pm E 5.1 9.9------ 76.5 79.9----
2024-04-18 10:48 pm E 6.0 8.9------ 76.3 79.9----
2024-04-18 10:42 pm E 7.0 8.9------ 76.5 79.9----
2024-04-18 10:36 pm E 7.0 9.9------ 76.5 79.9----
2024-04-18 10:30 pm E 7.0 8.9------ 76.6 79.9----
2024-04-18 10:24 pm E 6.0 11.1------ 76.6 79.9----
2024-04-18 10:18 pm E 6.0 8.9------ 76.6 79.9----
2024-04-18 10:12 pm E 5.1 8.9------ 76.6 79.9----
2024-04-18 10:06 pm E 6.0 9.9------ 76.6 79.9----
2024-04-18 10:00 pm E 5.1 11.1------ 76.6 80.1----
2024-04-18 09:54 pm E 6.0 8.0------ 76.6 80.1----
2024-04-18 09:48 pm E 6.0 8.9------ 76.6 80.1----
2024-04-18 09:42 pm E 4.1 8.9------ 76.6 80.1----
2024-04-18 09:36 pm E 6.0 8.0------ 76.6 80.1----
2024-04-18 09:30 pm E 6.0 8.9------ 76.6 80.1----
2024-04-18 09:24 pm E 7.0 8.9------ 76.6 80.1----
2024-04-18 09:18 pmENE 6.0 8.9------ 76.8 80.1----
2024-04-18 09:12 pm E 6.0 8.9------ 76.8 80.2----
2024-04-18 09:06 pm E 6.0 8.9------ 76.8 80.2----
2024-04-18 09:00 pm E 7.0 9.9------ 76.8 80.2----
2024-04-18 08:54 pm E 7.0 11.1------ 76.8 80.2----
2024-04-18 08:48 pm E 6.0 8.9------ 77.0 80.2----
2024-04-18 08:42 pm E 6.0 11.1------ 77.0 80.2----
2024-04-18 08:36 pm E 6.0 9.9------ 77.0 80.2----
2024-04-18 08:30 pm E 2.9 7.0------ 77.0 80.4----
2024-04-18 08:24 pm E 6.0 9.9------ 77.0 80.4----
2024-04-18 08:18 pm E 4.1 8.0------ 77.2 80.4----
2024-04-18 08:12 pm E 5.1 7.0------ 77.2 80.4----
2024-04-18 08:06 pm E 5.1 9.9------ 77.2 80.4----
2024-04-18 08:00 pm E 6.0 11.1------ 77.2 80.4----
2024-04-18 07:54 pm E 5.1 11.1------ 77.4 80.4----
2024-04-18 07:48 pm E 5.1 8.9------ 77.4 80.4----
2024-04-18 07:42 pm E 5.1 11.1------ 77.5 80.4----
2024-04-18 07:36 pm E 7.0 9.9------ 77.5 80.6----
2024-04-18 07:30 pm E 6.0 9.9------ 77.7 80.6----
2024-04-18 07:24 pmESE 4.1 8.9------ 78.1 80.6----
2024-04-18 07:18 pm E 7.0 11.1------ 77.7 80.6----
2024-04-18 07:00 pmESE 5.1 9.9------ 78.3 80.6----
2024-04-18 06:54 pm E 5.1 11.1------ 78.1 80.6----
2024-04-18 06:48 pm E 8.9 11.1------ 77.7 80.6----
2024-04-18 06:42 pm E 8.0 11.1------ 77.7 80.6----
2024-04-18 06:36 pm E 5.1 8.0------ 78.3 80.6----
2024-04-18 06:30 pmESE 4.1 8.0------ 78.3 80.6----
2024-04-18 06:24 pm E 6.0 9.9------ 78.1 80.6----
2024-04-18 06:18 pm E 7.0 9.9------ 78.1 80.6----
2024-04-18 06:12 pm E 8.9 12.0------ 77.9 80.6----
2024-04-18 06:06 pm E 6.0 9.9------ 78.4 80.6----
2024-04-18 06:00 pm E 8.9 12.0------- 80.6----
2024-04-18 05:54 pm E 7.0 12.0------- 80.6----
2024-04-18 05:48 pm E 7.0 11.1------ 79.0 80.6----
2024-04-18 05:42 pm E 8.9 12.0------ 78.8 80.6----
2024-04-18 05:36 pmESE 5.1 12.0------ 79.2 80.6----
2024-04-18 05:30 pm E 7.0 11.1------ 78.8 80.6----
2024-04-18 05:24 pm E 6.0 11.1------ 79.5 80.6----
2024-04-18 05:18 pm E 5.1 11.1------ 79.7 80.6----
2024-04-18 05:12 pmENE 8.0 12.0------ 78.4 80.6----
2024-04-18 05:06 pm E 8.0 12.0------ 79.0 80.6----
2024-04-18 05:00 pm E 8.0 13.0------ 78.6 80.4----
2024-04-18 04:54 pm E 7.0 12.0------ 79.3 80.4----
2024-04-18 04:48 pm E 8.9 15.0------ 78.6 80.4----
2024-04-18 04:42 pm E 8.0 11.1------ 79.3 80.4----
2024-04-18 04:36 pm E 7.0 12.0------ 79.3 80.4----
2024-04-18 04:30 pm E 8.0 13.0------ 79.0 80.4----
2024-04-18 04:24 pm E 8.0 12.0------ 78.8 80.2----
2024-04-18 04:18 pm E 7.0 12.0------ 78.8 80.1----
2024-04-18 04:12 pm E 8.0 12.0------ 79.3 80.1----
2024-04-18 04:06 pm E 9.9 14.0------ 78.3 80.1----
2024-04-18 04:00 pm E 8.9 14.0------ 78.4 79.9----
2024-04-18 03:54 pmENE 8.9 12.0------ 78.4 79.9----
2024-04-18 03:48 pm E 11.1 13.0------ 78.3 79.9----
2024-04-18 03:42 pm E 7.0 13.0------ 79.2 79.9----
2024-04-18 03:36 pm E 7.0 11.1------ 79.3 79.9----
2024-04-18 03:30 pm E 7.0 12.0------ 79.7 79.9----
2024-04-18 03:24 pmESE 6.0 12.0------ 80.1 79.9----
2024-04-18 03:18 pm E 5.1 12.0------ 79.7 79.7----
2024-04-18 03:12 pm E 5.1 12.0------ 79.3 79.7----
2024-04-18 03:06 pm E 8.0 12.0------ 79.0 79.7----
2024-04-18 03:00 pm E 7.0 11.1------ 79.3 79.5----
2024-04-18 02:54 pm E 8.9 14.0------ 79.2 79.5----
2024-04-18 02:48 pmESE 6.0 11.1------ 79.9 79.5----
2024-04-18 02:42 pm E 8.0 13.0------ 79.2 79.3----
2024-04-18 02:36 pmESE 6.0 11.1------ 80.2 79.3----
2024-04-18 02:30 pm E 9.9 13.0------ 78.8 79.3----
2024-04-18 02:24 pm E 6.0 11.1------ 79.5 79.3----
2024-04-18 02:18 pm E 6.0 12.0------ 79.5 79.2----
2024-04-18 02:12 pm E 5.1 11.1------ 79.5 79.2----
2024-04-18 02:06 pm E 6.0 9.9------ 79.5 79.0----
2024-04-18 02:00 pmESE 4.1 12.0------ 80.4 78.8----
2024-04-18 01:54 pm E 7.0 12.0------ 79.3 79.0----
2024-04-18 01:48 pm E 8.0 12.0------ 78.8 79.0----
2024-04-18 01:42 pm E 7.0 12.0------ 79.0 78.8----
2024-04-18 01:36 pm E 8.9 12.0------ 78.1 78.8----
2024-04-18 01:30 pm E 7.0 13.0------ 79.2 78.8----
2024-04-18 01:24 pm E 8.9 14.0------ 78.8 78.6----
2024-04-18 01:18 pm E 9.9 14.0------ 78.1 78.6----
2024-04-18 01:12 pm E 9.9 12.0------ 78.1 78.6----
2024-04-18 01:06 pm E 8.9 13.0------ 79.2 78.4----
2024-04-18 01:00 pm E 7.0 13.0------ 79.7 78.4----
2024-04-18 12:54 pm E 8.0 15.0------ 79.0 78.3----
2024-04-18 12:48 pm E 7.0 12.0------ 79.7 78.3----
2024-04-18 12:42 pm E 5.1 11.1------ 79.9 78.3----
2024-04-18 12:36 pm E 6.0 11.1------ 80.2 78.3----
2024-04-18 12:30 pm E 8.0 11.1------ 79.2 78.1----
2024-04-18 12:24 pm E 8.9 14.0------ 79.0 78.1----
2024-04-18 12:18 pm E 8.9 13.0------ 78.4 78.1----
2024-04-18 12:12 pmESE 6.0 11.1------ 79.9 78.1----
2024-04-18 12:06 pmESE 6.0 11.1------ 80.1 78.1----
2024-04-18 12:00 pmESE 6.0 11.1------ 80.1 77.9----
2024-04-18 11:54 am E 6.0 11.1------ 79.7 77.9----
2024-04-18 11:48 am E 8.9 12.0------ 78.8 77.9----
2024-04-18 11:42 am E 7.0 12.0------ 79.0 77.9----
2024-04-18 11:36 am E 7.0 12.0------ 78.3 77.9----
2024-04-18 11:30 am E 7.0 9.9------ 79.0 77.7----
2024-04-18 11:24 amESE 6.0 12.0------ 79.2 77.7----
2024-04-18 11:18 am E 8.0 12.0------ 78.4 77.7----
2024-04-18 11:12 am E 7.0 11.1------ 79.0 77.5----
2024-04-18 11:06 am E 7.0 11.1------ 79.3 77.5----
2024-04-18 11:00 am E 8.0 11.1------ 78.6 77.5----
2024-04-18 10:54 am E 6.0 9.9------ 78.4 77.5----
2024-04-18 10:48 am E 7.0 12.0------------
2024-04-18 10:42 am E 4.1 13.0------------
2024-04-18 10:36 amESE 4.1 8.9------------
2024-04-18 10:30 am E 7.0 11.1------ 78.6 77.4----
2024-04-18 10:24 am SE 7.0 11.1------ 79.2 77.4----
2024-04-18 10:18 am E 7.0 9.9------ 78.8 77.4----
2024-04-18 10:12 amESE 6.0 12.0------ 78.8 77.4----
2024-04-18 10:06 am E 5.1 11.1------ 78.4 77.4----
2024-04-18 10:00 am E 6.0 11.1------ 78.8 77.4----
2024-04-18 09:54 amESE 6.0 9.9------ 78.8 77.2----
2024-04-18 09:48 am E 5.1 13.0------ 79.0 77.2----
2024-04-18 09:42 am SE 8.9 14.0------ 78.3 77.2----
2024-04-18 09:36 amESE 6.0 13.0------ 78.6 77.2----
2024-04-18 09:30 amESE 7.0 12.0------ 78.3 77.2----
2024-04-18 09:24 amESE 8.9 12.0------ 78.1 77.2----
2024-04-18 09:18 amESE 5.1 12.0------ 78.4 77.2----
2024-04-18 09:12 amESE 5.1 11.1------ 78.4 77.2----
2024-04-18 09:06 amESE 5.1 9.9------ 78.4 77.2----
2024-04-18 09:00 amESE 6.0 11.1------ 78.1 77.2----
2024-04-18 08:54 amESE 6.0 11.1------ 77.9 77.2----
2024-04-18 08:48 amESE 6.0 11.1------ 77.5 77.2----
2024-04-18 08:42 am E 5.1 11.1------ 77.7 77.0----
2024-04-18 08:36 am E 6.0 9.9------ 77.5 77.0----
2024-04-18 08:30 amESE 4.1 9.9------ 77.5 77.0----
2024-04-18 08:24 amESE 5.1 8.0------ 77.0 77.0----
2024-04-18 08:18 am E 4.1 7.0------ 77.2 77.2----
2024-04-18 08:12 amESE 5.1 8.9------ 77.0 77.2----
2024-04-18 08:06 am E 6.0 8.0------ 76.6 77.2----
2024-04-18 08:00 am E 5.1 8.9------ 76.5 77.2----
2024-04-18 07:54 amESE 5.1 8.9------ 76.6 77.2----
2024-04-18 07:48 amESE 2.9 8.9------ 76.3 77.2----
2024-04-18 07:42 am E 1.9 7.0------ 76.3 77.2----
2024-04-18 07:36 amESE 5.1 8.0------ 75.9 77.2----
2024-04-18 07:30 am E 5.1 8.9------ 75.7 77.2----
2024-04-18 07:24 am E 4.1 8.9------ 75.6 77.2----
2024-04-18 07:18 am E 4.1 9.9------ 75.2 77.2----
2024-04-18 07:12 am E 6.0 8.9------ 75.2 77.2----
2024-04-18 07:06 am E 5.1 9.9------ 75.0 77.2----
2024-04-18 07:00 am E 5.1 8.9------ 75.0 77.4----
2024-04-18 06:54 amESE 6.0 11.1------ 75.0 77.4----
2024-04-18 06:48 am E 5.1 8.9------ 75.2 77.4----
2024-04-18 06:42 amESE 4.1 9.9------ 75.0 77.4----
2024-04-18 06:36 am E 5.1 8.9------ 75.2 77.4----
2024-04-18 06:30 am E 5.1 8.9------ 75.0 77.4----
2024-04-18 06:24 amESE 5.1 9.9------ 75.2 77.4----
2024-04-18 06:18 am E 5.1 11.1------ 75.2 77.5----
2024-04-18 06:12 amESE 5.1 9.9------ 75.2 77.5----
2024-04-18 06:06 am E 6.0 11.1------ 75.4 77.5----
2024-04-18 06:00 am E 6.0 9.9------ 75.4 77.5----
2024-04-18 05:54 am E 7.0 9.9------ 75.6 77.5----
2024-04-18 05:48 amESE 5.1 8.9------ 75.2 77.5----
2024-04-18 05:42 am E 4.1 8.9------ 75.4 77.5----
2024-04-18 05:36 amESE 5.1 11.1------ 75.6 77.5----
2024-04-18 05:30 amESE 6.0 11.1------ 75.4 77.7----
2024-04-18 05:24 am E 5.1 9.9------ 75.4 77.7----
2024-04-18 05:18 am E 4.1 9.9------ 75.2 77.7----
2024-04-18 05:12 am E 5.1 9.9------ 75.4 77.7----
2024-04-18 05:06 am E 7.0 11.1------ 75.4 77.7----
2024-04-18 05:00 am E 5.1 8.0------ 75.4 77.7----
2024-04-18 04:54 am E 5.1 8.9------ 75.2 77.7----
2024-04-18 04:48 am E 5.1 9.9------ 75.4 77.7----
2024-04-18 04:42 am E 6.0 9.9------ 75.4 77.7----
2024-04-18 04:36 am E 4.1 8.9------ 75.4 77.7----
2024-04-18 04:30 am E 6.0 9.9------ 75.2 77.7----
2024-04-18 04:24 am E 5.1 11.1------ 75.2 77.7----
2024-04-18 04:18 am E 6.0 8.9------ 75.2 77.7----
2024-04-18 04:12 am E 6.0 8.9------ 75.4 77.7----
2024-04-18 04:06 am E 6.0 8.9------ 75.4 77.9----
2024-04-18 04:00 am E 7.0 11.1------ 75.4 77.9----
2024-04-18 03:54 am E 6.0 11.1------ 75.4 77.9----
2024-04-18 03:48 am E 6.0 11.1------ 75.4 77.9----
2024-04-18 03:42 am E 5.1 8.9------ 75.4 77.9----
2024-04-18 03:36 am E 6.0 9.9------ 75.2 77.9----
2024-04-18 03:30 am E 6.0 8.9------ 75.2 78.1----
2024-04-18 03:24 am E 5.1 8.9------ 74.7 78.1----
2024-04-18 03:18 am E 6.0 8.9------ 74.8 78.1----
2024-04-18 03:12 am E 6.0 8.9------ 75.0 78.1----
2024-04-18 03:06 am E 7.0 8.9------ 74.8 78.1----
2024-04-18 03:00 am E 5.1 8.0------ 75.0 78.1----
2024-04-18 02:54 am E 7.0 8.0------ 75.0 78.1----
2024-04-18 02:48 am E 6.0 8.9------ 75.0 78.1----
2024-04-18 02:42 am E 7.0 9.9------ 74.8 78.1----
2024-04-18 02:36 am E 5.1 8.9------ 74.8 78.1----
2024-04-18 02:30 am E 6.0 8.0------ 74.8 78.1----
2024-04-18 02:24 am E 7.0 9.9------ 75.0 78.1----
2024-04-18 02:18 am E 7.0 9.9------ 75.0 78.3----
2024-04-18 02:12 am E 7.0 9.9------ 75.0 78.3----
2024-04-18 02:06 am E 7.0 9.9------ 75.2 78.3----
2024-04-18 02:00 am E 7.0 8.9------ 75.2 78.3----
2024-04-18 01:54 am E 6.0 8.9------ 75.4 78.3----
2024-04-18 01:48 am E 7.0 9.9------ 75.6 78.3----
2024-04-18 01:42 amENE 7.0 8.9------ 75.7 78.3----
2024-04-18 01:36 am E 7.0 8.9------ 75.4 78.3----
2024-04-18 01:30 am E 7.0 8.9------ 75.6 78.3----
2024-04-18 01:24 am E 8.0 9.9------ 75.6 78.3----
2024-04-18 01:18 am E 7.0 9.9------ 75.6 78.3----
2024-04-18 01:12 amENE 7.0 9.9------ 75.7 78.4----
2024-04-18 01:06 am E 7.0 11.1------ 75.6 78.4----
2024-04-18 01:00 am E 7.0 9.9------ 75.7 78.4----
2024-04-18 12:54 am E 7.0 8.0------ 75.6 78.4----